Time;durP1;ratioP1;P1;durP2;ratioP2;P2;SDS_P1;SDS_P2;PMS_P1;PMS_P2;Temp;Humidity;BMP_temperature;BMP_pressure;BME280_temperature;BME280_humidity;BME280_pressure;Samples;Min_cycle;Max_cycle;Signal;HPM_P1;HPM_P2
2023/09/21 00:02:26;;;;;;;4.83;2.10;;;;;;;19.38;100.00;99883.81;5234357;28;20032;-72
2023/09/21 00:04:58;;;;;;;6.05;2.35;;;;;;;19.39;100.00;99877.50;5234660;28;20021;-72
2023/09/21 00:07:31;;;;;;;5.07;1.97;;;;;;;19.39;100.00;99877.50;5233927;28;20410;-72
2023/09/21 00:10:06;;;;;;;4.53;2.00;;;;;;;19.38;100.00;99867.88;5236455;28;20079;-73
2023/09/21 00:12:38;;;;;;;4.20;1.73;;;;;;;19.38;100.00;99868.72;5235468;28;20025;-72
2023/09/21 00:15:12;;;;;;;3.47;1.83;;;;;;;19.39;100.00;99866.88;5234237;28;20022;-72
2023/09/21 00:17:49;;;;;;;3.58;1.70;;;;;;;19.46;100.00;99862.53;5232712;28;20067;-72
2023/09/21 00:20:25;;;;;;;5.57;2.23;;;;;;;19.44;100.00;99861.88;5233125;28;20484;-72
2023/09/21 00:22:59;;;;;;;3.53;1.50;;;;;;;19.27;100.00;99859.28;5233160;28;20103;-72
2023/09/21 00:25:30;;;;;;;4.15;1.90;;;;;;;19.34;100.00;99860.25;5232260;28;20021;-72
2023/09/21 00:28:11;;;;;;;6.37;2.10;;;;;;;19.39;100.00;99851.75;5232112;28;20026;-73
2023/09/21 00:30:42;;;;;;;6.47;1.80;;;;;;;19.30;100.00;99848.34;5232226;28;20025;-72
2023/09/21 00:33:14;;;;;;;6.17;1.67;;;;;;;19.32;100.00;99846.34;5231474;28;20036;-72
2023/09/21 00:35:45;;;;;;;4.37;1.83;;;;;;;19.38;100.00;99841.31;5231644;28;20435;-73
2023/09/21 00:38:18;;;;;;;2.87;1.53;;;;;;;19.32;100.00;99841.03;5231702;28;20124;-73
2023/09/21 00:40:50;;;;;;;3.87;1.97;;;;;;;19.32;100.00;99838.38;5230367;28;20072;-73
2023/09/21 00:43:24;;;;;;;3.20;1.67;;;;;;;19.33;100.00;99824.09;5231573;28;20488;-73
2023/09/21 00:45:59;;;;;;;3.40;1.70;;;;;;;19.35;100.00;99829.25;5231052;28;20038;-73
2023/09/21 00:48:38;;;;;;;3.67;2.13;;;;;;;19.41;100.00;99827.72;5229737;28;20083;-73
2023/09/21 00:51:12;;;;;;;5.07;1.80;;;;;;;19.38;100.00;99817.44;5230027;28;20083;-73
2023/09/21 00:53:45;;;;;;;4.70;2.10;;;;;;;19.34;100.00;99817.78;5231195;28;20041;-73
2023/09/21 00:56:18;;;;;;;3.93;1.50;;;;;;;19.42;100.00;99814.28;5247134;28;20041;-73
2023/09/21 00:58:53;;;;;;;2.58;1.73;;;;;;;19.39;100.00;99808.47;5231053;28;20033;-73
2023/09/21 01:01:27;;;;;;;4.87;2.43;;;;;;;19.40;100.00;99807.47;5231390;28;20080;-72
2023/09/21 01:04:01;;;;;;;5.70;1.63;;;;;;;19.41;100.00;99795.88;5229173;28;20060;-73
2023/09/21 01:06:33;;;;;;;3.27;1.90;;;;;;;19.45;100.00;99791.84;5276172;22;20072;-73
2023/09/21 01:09:07;;;;;;;2.30;1.67;;;;;;;19.38;100.00;99798.84;5230477;28;20052;-73
2023/09/21 01:11:39;;;;;;;6.47;2.35;;;;;;;19.46;100.00;99782.88;5232144;28;20029;-73
2023/09/21 01:14:11;;;;;;;2.50;1.53;;;;;;;19.38;100.00;99775.78;5232259;28;20249;-73
2023/09/21 01:16:42;;;;;;;4.20;2.03;;;;;;;19.45;100.00;99781.22;5232009;28;20017;-73
2023/09/21 01:19:14;;;;;;;3.47;1.50;;;;;;;19.50;97.60;99775.38;5230680;28;20036;-73
2023/09/21 01:21:49;;;;;;;2.97;1.63;;;;;;;19.54;97.24;99777.50;5231839;28;20057;-73
2023/09/21 01:24:23;;;;;;;3.40;1.87;;;;;;;19.56;96.89;99767.53;5246203;28;20278;-73
2023/09/21 01:26:55;;;;;;;3.50;2.13;;;;;;;19.63;95.34;99772.13;5246320;28;20037;-73
2023/09/21 01:29:29;;;;;;;6.53;1.63;;;;;;;19.61;96.10;99764.34;5230025;28;20113;-73
2023/09/21 01:32:01;;;;;;;3.23;1.90;;;;;;;19.65;94.19;99760.34;5230234;28;20021;-74
2023/09/21 01:34:33;;;;;;;4.23;1.83;;;;;;;19.65;93.56;99760.34;5231269;28;20078;-72
2023/09/21 01:37:05;;;;;;;4.43;1.60;;;;;;;19.65;94.11;99757.69;5229986;28;20532;-73
2023/09/21 01:39:37;;;;;;;1.80;1.30;;;;;;;19.66;94.03;99759.31;5231258;28;20108;-72
2023/09/21 01:42:08;;;;;;;4.73;1.70;;;;;;;19.66;93.22;99737.25;5235448;28;20039;-72
2023/09/21 01:44:40;;;;;;;3.20;1.50;;;;;;;19.71;93.09;99749.00;5233731;28;20021;-72
2023/09/21 01:47:12;;;;;;;4.43;1.90;;;;;;;19.70;92.61;99743.84;5233994;28;20029;-72
2023/09/21 01:49:44;;;;;;;4.80;1.60;;;;;;;19.73;91.47;99740.00;5233166;28;20025;-72
2023/09/21 01:52:15;;;;;;;8.73;1.70;;;;;;;19.69;92.78;99740.38;5235372;28;20535;-72
2023/09/21 01:54:47;;;;;;;3.83;1.70;;;;;;;19.69;91.00;99729.75;5233173;28;20036;-74
2023/09/21 01:57:18;;;;;;;3.73;1.60;;;;;;;19.67;91.64;99731.75;5233120;28;20515;-73
2023/09/21 01:59:49;;;;;;;5.80;2.23;;;;;;;19.71;91.91;99737.53;5235727;28;20048;-73
2023/09/21 02:02:21;;;;;;;3.13;1.40;;;;;;;19.70;91.63;99730.56;5233860;28;20025;-72
2023/09/21 02:04:52;;;;;;;3.70;1.60;;;;;;;19.66;92.75;99731.94;5234619;28;20046;-72
2023/09/21 02:07:24;;;;;;;4.17;1.50;;;;;;;19.61;91.92;99728.97;5233070;28;20017;-72
2023/09/21 02:09:56;;;;;;;6.00;1.90;;;;;;;19.59;92.17;99726.50;5234859;28;20047;-72
2023/09/21 02:12:27;;;;;;;4.20;2.67;;;;;;;19.65;90.77;99723.16;5234304;28;20802;-73
2023/09/21 02:14:59;;;;;;;5.17;1.60;;;;;;;19.61;92.53;99719.19;5234490;28;20037;-73
2023/09/21 02:17:30;;;;;;;4.87;1.67;;;;;;;19.57;93.08;99725.84;5231492;28;20095;-73
2023/09/21 02:20:02;;;;;;;2.80;1.60;;;;;;;19.59;92.71;99730.00;5233304;28;20030;-73
2023/09/21 02:22:33;;;;;;;2.40;1.70;;;;;;;19.54;93.98;99726.22;5233734;28;20032;-72
2023/09/21 02:25:10;;;;;;;2.73;1.67;;;;;;;19.56;92.50;99722.41;5233161;28;20038;-73
2023/09/21 02:27:48;;;;;;;3.97;1.83;;;;;;;19.45;92.59;99702.41;5234598;28;20030;-73
2023/09/21 02:30:21;;;;;;;3.90;1.93;;;;;;;19.53;93.79;99719.28;5233701;28;20131;-72
2023/09/21 02:32:54;;;;;;;4.20;1.30;;;;;;;19.49;94.51;99712.66;5233661;28;20033;-73
2023/09/21 02:35:27;;;;;;;3.53;1.73;;;;;;;19.51;93.96;99710.66;5233390;28;20068;-73
2023/09/21 02:38:00;;;;;;;2.93;1.57;;;;;;;19.49;94.61;99697.56;5234210;28;20129;-73
2023/09/21 02:40:31;;;;;;;3.03;1.87;;;;;;;19.49;94.50;99702.03;5234368;28;20120;-73
2023/09/21 02:43:03;;;;;;;3.73;1.73;;;;;;;19.51;92.43;99698.22;5233395;28;20112;-74
2023/09/21 02:45:36;;;;;;;6.80;1.80;;;;;;;19.53;92.99;99708.66;5234115;28;20029;-73
2023/09/21 02:48:08;;;;;;;4.10;2.07;;;;;;;19.46;94.67;99704.03;5232594;28;20029;-73
2023/09/21 02:50:39;;;;;;;4.17;1.60;;;;;;;19.50;94.65;99698.38;5233985;28;20060;-72
2023/09/21 02:53:12;;;;;;;2.23;1.30;;;;;;;19.40;96.52;99704.78;5232486;28;20025;-72
2023/09/21 02:55:43;;;;;;;5.03;1.47;;;;;;;19.51;94.90;99705.34;5233074;28;20162;-73
2023/09/21 02:58:14;;;;;;;2.67;1.60;;;;;;;19.36;95.88;99681.41;5233278;28;20104;-73
2023/09/21 03:00:46;;;;;;;2.93;1.50;;;;;;;19.43;95.21;99688.47;5232621;28;20371;-73
2023/09/21 03:03:20;;;;;;;2.17;1.30;;;;;;;19.47;95.09;99704.88;5232434;28;20642;-72
2023/09/21 03:05:52;;;;;;;7.13;1.57;;;;;;;19.46;94.50;99695.28;5233780;28;20411;-72
2023/09/21 03:08:23;;;;;;;4.33;1.40;;;;;;;19.46;95.22;99687.31;5233081;28;20029;-73
2023/09/21 03:10:56;;;;;;;3.17;1.60;;;;;;;19.40;96.15;99690.66;5233684;28;20488;-73
2023/09/21 03:13:28;;;;;;;3.43;1.67;;;;;;;19.43;94.91;99688.47;5233451;28;20033;-73
2023/09/21 03:15:59;;;;;;;3.37;1.53;;;;;;;19.31;97.25;99669.50;5233098;28;20581;-72
2023/09/21 03:18:31;;;;;;;4.00;1.50;;;;;;;19.34;97.75;99685.06;5232251;28;20068;-73
2023/09/21 03:21:15;;;;;;;2.13;1.30;;;;;;;19.45;96.63;99691.78;5232940;28;20030;-73
2023/09/21 03:23:46;;;;;;;5.38;2.28;;;;;;;19.40;99.81;99682.69;5233875;28;20091;-73
2023/09/21 03:26:18;;;;;;;3.13;1.63;;;;;;;19.40;96.82;99682.69;5232980;28;20048;-73
2023/09/21 03:28:50;;;;;;;3.07;1.57;;;;;;;19.33;98.51;99683.41;5233020;28;20025;-73
2023/09/21 03:31:22;;;;;;;2.30;1.60;;;;;;;19.37;98.54;99677.75;5232911;28;20029;-74
2023/09/21 03:33:53;;;;;;;6.13;2.10;;;;;;;19.36;97.22;99679.56;5231285;28;20413;-73
2023/09/21 03:36:24;;;;;;;4.80;2.10;;;;;;;19.38;98.03;99679.38;5232616;28;20040;-73
2023/09/21 03:38:56;;;;;;;6.17;2.10;;;;;;;19.39;98.24;99673.91;5232766;28;20028;-73
2023/09/21 03:41:28;;;;;;;3.07;1.70;;;;;;;19.39;97.89;99676.56;5232860;28;20472;-74
2023/09/21 03:43:59;;;;;;;3.57;1.90;;;;;;;19.31;98.56;99669.50;5232741;28;20082;-72
2023/09/21 03:46:31;;;;;;;2.93;1.70;;;;;;;19.32;99.75;99671.13;5230253;28;20025;-74
2023/09/21 03:49:04;;;;;;;2.90;1.40;;;;;;;19.37;98.62;99664.47;5230515;28;20068;-73
2023/09/21 03:51:36;;;;;;;4.10;1.83;;;;;;;19.40;98.09;99667.59;5231450;28;20061;-73
2023/09/21 03:54:07;;;;;;;4.30;1.83;;;;;;;19.39;99.04;99665.94;5230869;28;20022;-73
2023/09/21 03:56:39;;;;;;;4.13;1.87;;;;;;;19.44;97.71;99662.75;5230963;28;20028;-73
2023/09/21 03:59:11;;;;;;;4.63;1.93;;;;;;;19.42;98.05;99654.16;5232267;28;20032;-74
2023/09/21 04:01:42;;;;;;;4.53;1.77;;;;;;;19.45;98.44;99654.63;5231712;28;20029;-74
2023/09/21 04:04:18;;;;;;;3.77;1.90;;;;;;;19.43;98.33;99646.00;5231208;28;20022;-72
2023/09/21 04:06:49;;;;;;;2.53;1.40;;;;;;;19.49;98.72;99648.94;5231524;28;20109;-71
2023/09/21 04:09:21;;;;;;;4.00;1.80;;;;;;;19.50;98.17;99651.41;5232392;28;20037;-72
2023/09/21 04:11:52;;;;;;;3.80;1.90;;;;;;;19.54;98.53;99652.72;5232337;28;20147;-72
2023/09/21 04:14:27;;;;;;;3.43;1.50;;;;;;;19.54;98.78;99649.22;5231519;28;20037;-73
2023/09/21 04:16:58;;;;;;;5.80;1.70;;;;;;;19.56;98.68;99650.69;5231315;28;20029;-73
2023/09/21 04:19:30;;;;;;;2.80;1.60;;;;;;;19.57;98.52;99656.81;5231481;28;20076;-72
2023/09/21 04:22:01;;;;;;;4.70;2.10;;;;;;;19.62;99.04;99653.63;5230239;28;20029;-73
2023/09/21 04:24:33;;;;;;;3.90;1.90;;;;;;;19.59;98.85;99646.84;5232064;28;20025;-72
2023/09/21 04:27:05;;;;;;;6.70;2.37;;;;;;;19.60;99.15;99651.16;5232265;28;20120;-72
2023/09/21 04:29:36;;;;;;;3.67;1.70;;;;;;;19.59;99.98;99650.34;5232888;28;20108;-71
2023/09/21 04:32:09;;;;;;;6.33;2.40;;;;;;;19.58;99.82;99643.34;5231461;28;20756;-72
2023/09/21 04:34:41;;;;;;;5.23;2.17;;;;;;;19.52;100.00;99638.78;5230652;28;20689;-72
2023/09/21 04:37:13;;;;;;;6.97;2.20;;;;;;;19.57;100.00;99646.19;5232660;28;20040;-71
2023/09/21 04:39:44;;;;;;;5.13;2.00;;;;;;;19.58;100.00;99640.69;5232479;28;20600;-73
2023/09/21 04:42:16;;;;;;;4.17;2.27;;;;;;;19.57;100.00;99640.88;5232144;28;20053;-73
2023/09/21 04:44:47;;;;;;;7.60;2.03;;;;;;;19.63;100.00;99642.00;5231609;28;20022;-73
2023/09/21 04:47:18;;;;;;;5.33;1.63;;;;;;;19.64;100.00;99644.47;5229792;28;20029;-73
2023/09/21 04:49:50;;;;;;;5.20;3.00;;;;;;;19.64;100.00;99641.81;5232153;28;20079;-73
2023/09/21 04:52:22;;;;;;;7.07;2.67;;;;;;;19.64;100.00;99646.28;5231492;28;20033;-71
2023/09/21 04:54:53;;;;;;;5.73;2.97;;;;;;;19.61;100.00;99636.03;5229616;28;20037;-72
2023/09/21 04:57:30;;;;;;;6.20;2.87;;;;;;;19.62;100.00;99637.72;5226074;28;20125;-72
2023/09/21 05:00:07;;;;;;;4.60;2.20;;;;;;;19.62;100.00;99633.19;5210597;28;20055;-72
2023/09/21 05:02:38;;;;;;;5.23;2.50;;;;;;;19.61;100.00;99634.22;5208725;28;20516;-71
2023/09/21 05:05:10;;;;;;;5.07;2.37;;;;;;;19.57;100.00;99635.56;5228983;28;20057;-72
2023/09/21 05:07:42;;;;;;;5.43;2.53;;;;;;;19.61;100.00;99641.34;5230038;28;20044;-71
2023/09/21 05:10:14;;;;;;;6.03;2.00;;;;;;;19.56;100.00;99631.28;5231601;28;20017;-72
2023/09/21 05:12:49;;;;;;;5.37;2.43;;;;;;;19.58;100.00;99630.06;5231318;28;20091;-73
2023/09/21 05:15:22;;;;;;;4.20;2.10;;;;;;;19.61;100.00;99620.09;5232924;28;20550;-71
2023/09/21 05:17:53;;;;;;;2.90;1.57;;;;;;;19.57;100.00;99616.97;5230387;28;20054;-72
2023/09/21 05:20:24;;;;;;;3.67;2.00;;;;;;;19.63;100.00;99620.75;5214337;28;20061;-72
2023/09/21 05:22:55;;;;;;;3.83;2.10;;;;;;;19.62;100.00;99621.78;5214882;28;20859;-71
2023/09/21 05:25:28;;;;;;;4.20;2.40;;;;;;;19.65;100.00;99622.22;5214557;28;20041;-72
2023/09/21 05:27:59;;;;;;;5.30;2.40;;;;;;;19.67;100.00;99624.72;5215182;28;20105;-71
2023/09/21 05:30:31;;;;;;;3.53;1.60;;;;;;;19.65;100.00;99621.41;5215781;28;20043;-72
2023/09/21 05:33:03;;;;;;;4.30;2.03;;;;;;;19.69;100.00;99620.00;5231916;28;20112;-72
2023/09/21 05:35:34;;;;;;;6.73;2.10;;;;;;;19.68;100.00;99623.69;5234880;28;20044;-72
2023/09/21 05:38:06;;;;;;;33.87;3.30;;;;;;;19.71;100.00;99631.28;5235182;28;20345;-73
2023/09/21 05:40:40;;;;;;;5.40;2.00;;;;;;;19.73;100.00;99615.16;5234545;28;20615;-72
2023/09/21 05:43:12;;;;;;;4.10;2.42;;;;;;;19.70;100.00;99619.03;5233226;28;20021;-73
2023/09/21 05:45:43;;;;;;;8.77;2.43;;;;;;;19.76;100.00;99617.47;5235308;28;20108;-72
2023/09/21 05:48:17;;;;;;;9.23;3.00;;;;;;;19.78;100.00;99612.78;5233849;28;20029;-72
2023/09/21 05:50:49;;;;;;;;;;;;;;;20.21;100.00;99619.31;5234579;28;20111;-73
2023/09/21 05:53:22;;;;;;;7.57;2.80;;;;;;;19.76;100.00;99607.66;5232953;28;21861;-71
2023/09/21 05:55:53;;;;;;;6.00;2.37;;;;;;;19.84;100.00;99620.03;5234619;28;20143;-71
2023/09/21 05:58:24;;;;;;;5.83;3.23;;;;;;;19.81;100.00;99605.28;5233938;28;20486;-72
2023/09/21 06:00:59;;;;;;;4.20;2.33;;;;;;;19.79;100.00;99615.25;5231888;28;20615;-73
2023/09/21 06:03:31;;;;;;;7.95;2.45;;;;;;;19.78;100.00;99610.97;5229337;28;20539;-73
2023/09/21 06:06:06;;;;;;;7.53;2.70;;;;;;;19.70;100.00;99619.03;5234155;28;20116;-73
2023/09/21 06:08:38;;;;;;;6.10;2.27;;;;;;;19.74;100.00;99622.13;5248237;28;20022;-72
2023/09/21 06:11:09;;;;;;;11.77;3.30;;;;;;;19.64;100.00;99625.03;5233202;28;20036;-72
2023/09/21 06:13:40;;;;;;;5.93;2.20;;;;;;;19.63;100.00;99631.38;5234885;28;20037;-73
2023/09/21 06:16:12;;;;;;;4.47;1.87;;;;;;;19.55;100.00;99626.97;5231386;28;20049;-72
2023/09/21 06:18:43;;;;;;;4.97;2.17;;;;;;;19.52;100.00;99636.13;5234230;28;20021;-72
2023/09/21 06:21:17;;;;;;;3.73;1.93;;;;;;;19.40;100.00;99625.13;5233798;28;20029;-71
2023/09/21 06:23:49;;;;;;;;;;;;;;;19.80;100.00;99635.50;5234497;28;20041;-73
2023/09/21 06:26:22;;;;;;;6.30;2.20;;;;;;;19.30;100.00;99630.69;5232597;28;20390;-72
2023/09/21 06:28:54;;;;;;;5.70;2.07;;;;;;;19.24;100.00;99636.69;5232946;28;20539;-72
2023/09/21 06:31:25;;;;;;;5.20;2.23;;;;;;;19.20;100.00;99630.13;5233716;28;20103;-72
2023/09/21 06:34:01;;;;;;;5.17;3.10;;;;;;;19.17;100.00;99636.59;5232728;28;20037;-72
2023/09/21 06:36:33;;;;;;;5.17;2.27;;;;;;;19.19;100.00;99639.06;5233317;28;20171;-72
2023/09/21 06:39:05;;;;;;;5.07;2.40;;;;;;;19.17;100.00;99639.25;5233554;28;20100;-73
2023/09/21 06:41:37;;;;;;;5.40;2.30;;;;;;;19.09;100.00;99634.78;5230173;28;20124;-73
2023/09/21 06:44:09;;;;;;;8.20;2.60;;;;;;;19.15;100.00;99643.91;5233826;28;20100;-71
2023/09/21 06:46:41;;;;;;;7.43;2.27;;;;;;;19.05;100.00;99638.81;5232844;28;20091;-71
2023/09/21 06:49:13;;;;;;;4.77;2.50;;;;;;;19.09;100.00;99649.91;5232801;28;20018;-72
2023/09/21 06:51:46;;;;;;;5.00;2.40;;;;;;;19.13;100.00;99653.06;5233908;28;20029;-70
2023/09/21 06:54:18;;;;;;;8.75;2.92;;;;;;;19.09;100.00;99661.31;5233544;28;20072;-71
2023/09/21 06:56:49;;;;;;;6.27;2.43;;;;;;;18.97;100.00;99665.41;5232400;28;20144;-71
2023/09/21 06:59:20;;;;;;;7.33;2.97;;;;;;;19.06;100.00;99661.69;5233530;28;20029;-72
2023/09/21 07:01:52;;;;;;;4.13;2.33;;;;;;;18.74;100.00;99659.09;5232447;28;20037;-73
2023/09/21 07:04:26;;;;;;;8.17;2.20;;;;;;;18.82;100.00;99658.22;5233087;28;20045;-72
2023/09/21 07:06:57;;;;;;;4.03;2.05;;;;;;;18.84;100.00;99656.22;5232912;28;20033;-70
2023/09/21 07:09:28;;;;;;;4.77;3.20;;;;;;;18.93;100.00;99659.63;5233758;28;20021;-71
2023/09/21 07:12:01;;;;;;;4.47;2.37;;;;;;;18.81;100.00;99659.22;5228609;28;20471;-73
2023/09/21 07:14:35;;;;;;;3.90;2.60;;;;;;;18.79;100.00;99647.97;5231561;28;20033;-74
2023/09/21 07:17:07;;;;;;;4.65;2.63;;;;;;;18.80;100.00;99654.09;5231754;28;20041;-74
2023/09/21 07:19:38;;;;;;;5.37;2.53;;;;;;;18.83;100.00;99648.44;5231790;28;20813;-76
2023/09/21 07:22:10;;;;;;;5.23;2.40;;;;;;;18.78;100.00;99643.63;5231677;28;20037;-78
2023/09/21 07:24:41;;;;;;;4.53;2.40;;;;;;;18.74;100.00;99637.06;5232774;28;20034;-75
2023/09/21 07:27:14;;;;;;;5.80;3.00;;;;;;;18.80;100.00;99636.34;5240494;28;20378;-74
2023/09/21 07:29:46;;;;;;;6.90;3.53;;;;;;;18.80;100.00;99646.94;5230091;28;20545;-72
2023/09/21 07:32:17;;;;;;;6.60;3.10;;;;;;;18.87;100.00;99652.38;5231264;28;20026;-71
2023/09/21 07:34:48;;;;;;;7.70;3.40;;;;;;;18.76;100.00;99650.97;5231835;28;20041;-72
2023/09/21 07:37:20;;;;;;;5.50;3.50;;;;;;;18.77;100.00;99642.00;5232332;28;20177;-73
2023/09/21 07:39:51;;;;;;;5.93;3.03;;;;;;;18.77;100.00;99636.69;5232279;28;20045;-73
2023/09/21 07:42:22;;;;;;;5.83;2.93;;;;;;;18.64;100.00;99639.09;5231595;28;20658;-71
2023/09/21 07:44:54;;;;;;;6.40;3.23;;;;;;;18.79;100.00;99653.25;5231863;28;20171;-71
2023/09/21 07:47:26;;;;;;;11.10;3.13;;;;;;;18.81;100.00;99653.91;5231752;28;20430;-72
2023/09/21 07:49:57;;;;;;;8.93;3.67;;;;;;;18.85;100.00;99647.25;5231804;28;20025;-70
2023/09/21 07:52:30;;;;;;;7.67;3.90;;;;;;;18.82;100.00;99650.25;5232588;28;20067;-71
2023/09/21 07:55:05;;;;;;;7.10;3.50;;;;;;;18.85;100.00;99655.19;5231240;28;20029;-71
2023/09/21 07:57:38;;;;;;;7.30;3.80;;;;;;;18.81;100.00;99656.56;5232813;28;20026;-71
2023/09/21 08:00:10;;;;;;;12.37;3.27;;;;;;;18.77;100.00;99654.41;5232749;28;20464;-71
2023/09/21 08:02:41;;;;;;;7.50;2.50;;;;;;;18.84;100.00;99664.16;5231971;28;20025;-69
2023/09/21 08:05:13;;;;;;;4.83;2.60;;;;;;;18.82;100.00;99660.84;5232706;28;20057;-69
2023/09/21 08:07:45;;;;;;;4.97;2.87;;;;;;;18.81;100.00;99661.88;5233552;28;20033;-69
2023/09/21 08:10:16;;;;;;;5.70;2.90;;;;;;;18.85;100.00;99673.75;5235680;28;20507;-71
2023/09/21 08:12:48;;;;;;;4.97;2.67;;;;;;;18.77;100.00;99673.81;5235221;28;20112;-70
2023/09/21 08:15:21;;;;;;;6.57;3.00;;;;;;;18.80;100.00;99678.78;5235459;28;20048;-70
2023/09/21 08:17:53;;;;;;;5.17;2.80;;;;;;;18.78;100.00;99678.13;5236401;28;20128;-70
2023/09/21 08:20:24;;;;;;;5.30;2.90;;;;;;;18.81;100.00;99680.44;5236464;28;20104;-71
2023/09/21 08:22:55;;;;;;;6.03;2.77;;;;;;;18.81;100.00;99680.44;5234569;28;20538;-71
2023/09/21 08:25:27;;;;;;;4.33;2.93;;;;;;;18.80;100.00;99689.38;5234230;28;20060;-71
2023/09/21 08:27:59;;;;;;;5.83;2.77;;;;;;;18.73;100.00;99699.03;5232614;28;20030;-71
2023/09/21 08:30:31;;;;;;;5.27;2.87;;;;;;;18.73;100.00;99709.63;5233072;28;20483;-71
2023/09/21 08:33:03;;;;;;;5.20;2.77;;;;;;;18.67;100.00;99715.66;5231883;28;20032;-70
2023/09/21 08:35:34;;;;;;;5.47;3.20;;;;;;;18.68;100.00;99727.91;5232511;28;20033;-71
2023/09/21 08:38:06;;;;;;;4.10;2.60;;;;;;;18.61;100.00;99725.13;5231827;28;20032;-72
2023/09/21 08:40:38;;;;;;;3.37;2.33;;;;;;;18.59;100.00;99725.28;5231266;28;20029;-70
2023/09/21 08:43:17;;;;;;;5.17;2.40;;;;;;;18.65;100.00;99728.25;5230071;28;20033;-70
2023/09/21 08:45:52;;;;;;;3.93;2.10;;;;;;;18.52;100.00;99729.63;5229965;28;20087;-71
2023/09/21 08:48:23;;;;;;;;;;;;;;;19.02;100.00;99734.69;5231797;28;20037;-70
2023/09/21 08:50:55;;;;;;;2.67;1.70;;;;;;;18.60;100.00;99747.34;5230220;28;20027;-71
2023/09/21 08:53:27;;;;;;;2.63;1.93;;;;;;;18.52;100.00;99737.56;5231657;28;20546;-71
2023/09/21 08:55:58;;;;;;;2.37;1.70;;;;;;;18.53;100.00;99752.50;5229918;28;20039;-71
2023/09/21 08:58:37;;;;;;;3.70;1.80;;;;;;;18.58;100.00;99744.84;5231853;28;20038;-71
2023/09/21 09:01:10;;;;;;;2.60;1.97;;;;;;;18.37;100.00;99735.66;5229129;28;20037;-70
2023/09/21 09:03:42;;;;;;;3.47;2.13;;;;;;;18.21;100.00;99735.69;5231924;28;20486;-70
2023/09/21 09:06:13;;;;;;;2.93;1.73;;;;;;;18.45;100.00;99736.63;5230817;28;20100;-70
2023/09/21 09:08:46;;;;;;;2.57;1.40;;;;;;;18.38;100.00;99726.69;5231608;28;20025;-70
2023/09/21 09:11:40;;;;;;;3.03;1.60;;;;;;;18.57;100.00;99737.06;5230736;28;20029;-71
2023/09/21 09:14:16;;;;;;;3.17;1.40;;;;;;;18.54;100.00;99745.34;5229590;28;20095;-70
2023/09/21 09:16:49;;;;;;;2.80;1.60;;;;;;;18.30;100.00;99736.50;5229492;28;20022;-70
2023/09/21 09:19:20;;;;;;;3.13;1.70;;;;;;;18.28;100.00;99744.63;5231225;28;20029;-70
2023/09/21 09:21:52;;;;;;;3.17;1.67;;;;;;;18.18;100.00;99742.16;5229395;28;20092;-71
2023/09/21 09:24:23;;;;;;;3.07;1.40;;;;;;;18.16;100.00;99735.38;5231301;28;20057;-70
2023/09/21 09:26:55;;;;;;;3.40;1.53;;;;;;;18.30;100.00;99716.13;5231057;28;20033;-70
2023/09/21 09:29:27;;;;;;;3.80;1.73;;;;;;;18.37;100.00;99729.53;5229143;28;20712;-71
2023/09/21 09:31:59;;;;;;;3.63;2.30;;;;;;;18.26;100.00;99720.94;5230127;28;20041;-70
2023/09/21 09:34:31;;;;;;;3.80;1.73;;;;;;;18.29;100.00;99719.78;5231008;28;20140;-70
2023/09/21 09:37:03;;;;;;;5.10;1.57;;;;;;;18.24;100.00;99695.59;5229959;28;20357;-70
2023/09/21 09:39:34;;;;;;;7.07;2.20;;;;;;;18.46;100.00;99704.66;5229431;28;20033;-70
2023/09/21 09:42:06;;;;;;;4.40;1.50;;;;;;;18.54;100.00;99709.06;5229897;28;20099;-70
2023/09/21 09:44:44;;;;;;;3.43;1.80;;;;;;;18.60;100.00;99704.91;5230360;28;20034;-70
2023/09/21 09:47:18;;;;;;;3.27;1.43;;;;;;;18.41;100.00;99708.81;5229628;28;20476;-71
2023/09/21 09:49:53;;;;;;;3.07;1.87;;;;;;;18.52;100.00;99718.22;5230531;28;20492;-71
2023/09/21 09:52:25;;;;;;;4.47;1.40;;;;;;;18.61;100.00;99718.00;5230767;28;20804;-71
2023/09/21 09:54:59;;;;;;;4.03;1.70;;;;;;;18.56;100.00;99708.91;5229303;28;20029;-70
2023/09/21 09:57:31;;;;;;;4.63;2.15;;;;;;;18.60;100.00;99705.75;5230626;28;20108;-72
2023/09/21 10:00:15;;;;;;;3.07;2.03;;;;;;;18.60;100.00;99704.91;5228413;28;20057;-71
2023/09/21 10:02:48;;;;;;;3.87;1.90;;;;;;;18.68;100.00;99706.69;5232997;28;20057;-71
2023/09/21 10:05:20;;;;;;;4.80;2.13;;;;;;;18.72;100.00;99697.38;5233959;28;20041;-71
2023/09/21 10:07:55;;;;;;;3.90;2.37;;;;;;;18.74;100.00;99692.75;5233959;28;20280;-70
2023/09/21 10:10:38;;;;;;;;;;;;;;;19.32;100.00;99687.06;5235283;28;20158;-71
2023/09/21 10:13:10;;;;;;;3.43;2.47;;;;;;;18.90;100.00;99688.34;5234111;28;19913;-70
2023/09/21 10:15:43;;;;;;;4.73;2.37;;;;;;;18.82;100.00;99687.38;5232159;28;20035;-70
2023/09/21 10:18:37;;;;;;;3.00;2.30;;;;;;;19.13;100.00;99682.25;5232210;28;20028;-70
2023/09/21 10:21:24;;;;;;;5.43;3.00;;;;;;;19.15;100.00;99672.28;5233720;28;20107;-71
2023/09/21 10:24:04;;;;;;;4.90;2.43;;;;;;;19.04;100.00;99674.28;5232398;28;20021;-70
2023/09/21 10:26:38;;;;;;;7.70;2.90;;;;;;;18.92;100.00;99676.53;5233762;28;20387;-70
2023/09/21 10:29:12;;;;;;;9.85;4.00;;;;;;;19.10;100.00;99678.91;5233892;28;20039;-71
2023/09/21 10:31:44;;;;;;;4.30;2.60;;;;;;;19.23;100.00;99685.50;5233395;28;20025;-70
2023/09/21 10:34:19;;;;;;;5.13;2.10;;;;;;;19.21;100.00;99679.53;5233397;28;20112;-71
2023/09/21 10:37:10;;;;;;;6.03;2.63;;;;;;;19.34;100.00;99658.50;5231561;28;20435;-71
2023/09/21 10:39:47;;;;;;;4.60;2.60;;;;;;;19.25;100.00;99680.00;5233777;28;20369;-71
2023/09/21 10:42:18;;;;;;;2.80;2.30;;;;;;;19.27;100.00;99662.88;5233944;28;20104;-77
2023/09/21 10:44:53;;;;;;;3.33;2.03;;;;;;;19.40;100.00;99667.59;5231332;28;20124;-72
2023/09/21 10:47:33;;;;;;;3.80;2.30;;;;;;;19.38;100.00;99661.63;5232624;28;20108;-71
2023/09/21 10:50:10;;;;;;;4.00;2.10;;;;;;;19.43;100.00;99656.63;5231385;28;20033;-71
2023/09/21 10:52:44;;;;;;;4.80;2.10;;;;;;;19.48;100.00;99652.59;5220722;28;20034;-72
2023/09/21 10:55:17;;;;;;;4.15;2.38;;;;;;;19.50;100.00;99651.41;5216271;28;20026;-71
2023/09/21 10:57:50;;;;;;;3.50;2.00;;;;;;;19.50;100.00;99653.22;5232941;28;20063;-71
2023/09/21 11:00:21;;;;;;;4.27;2.23;;;;;;;19.51;100.00;99644.28;5232591;28;20033;-71
2023/09/21 11:02:54;;;;;;;4.67;2.10;;;;;;;19.51;100.00;99636.31;5233045;28;20417;-74
2023/09/21 11:05:26;;;;;;;3.80;1.83;;;;;;;19.51;100.00;99621.22;5231989;28;20052;-74
2023/09/21 11:07:58;;;;;;;4.17;1.80;;;;;;;19.64;100.00;99630.34;5230960;28;20472;-73
2023/09/21 11:10:31;;;;;;;3.67;2.00;;;;;;;19.67;100.00;99622.06;5232302;28;20048;-75
2023/09/21 11:13:03;;;;;;;2.60;1.50;;;;;;;19.64;100.00;99625.88;5230988;28;20361;-73
2023/09/21 11:15:35;;;;;;;4.90;2.07;;;;;;;19.69;100.00;99617.34;5215817;28;20034;-71
2023/09/21 11:18:06;;;;;;;5.13;2.17;;;;;;;19.73;100.00;99621.31;5232265;28;20071;-72
2023/09/21 11:20:40;;;;;;;5.17;2.37;;;;;;;19.79;100.00;99617.09;5231688;28;20033;-73
2023/09/21 11:23:12;;;;;;;4.10;1.83;;;;;;;19.80;100.00;99611.59;5231328;28;20041;-72
2023/09/21 11:25:43;;;;;;;4.90;2.67;;;;;;;19.85;100.00;99607.56;5226184;28;20053;-75
2023/09/21 11:28:16;;;;;;;4.70;1.90;;;;;;;19.85;100.00;99613.69;5219404;28;20041;-72
2023/09/21 11:30:51;;;;;;;4.87;2.17;;;;;;;19.86;100.00;99607.41;5229874;28;20079;-74
2023/09/21 11:33:22;;;;;;;;;;;;;;;20.31;100.00;99657.06;5232429;28;20025;-74
2023/09/21 11:35:54;;;;;;;2.77;1.50;;;;;;;19.73;100.00;99642.56;5232742;28;19917;-74
2023/09/21 11:38:25;;;;;;;3.33;1.57;;;;;;;19.63;100.00;99644.66;5230966;28;20036;-74
2023/09/21 11:40:57;;;;;;;3.63;1.20;;;;;;;19.32;100.00;99657.06;5231083;28;20068;-73
2023/09/21 11:43:29;;;;;;;2.23;1.60;;;;;;;19.41;100.00;99655.16;5233637;28;20072;-74
2023/09/21 11:46:06;;;;;;;4.10;1.57;;;;;;;19.39;100.00;99667.78;5233641;28;20021;-75
2023/09/21 11:48:38;;;;;;;3.03;1.53;;;;;;;19.18;100.00;99658.66;5236379;28;20025;-73
2023/09/21 11:51:10;;;;;;;2.47;1.10;;;;;;;19.14;100.00;99657.34;5236613;28;20423;-73
2023/09/21 11:53:44;;;;;;;1.57;1.23;;;;;;;18.88;100.00;99669.13;5234841;28;20037;-73
2023/09/21 11:56:17;;;;;;;2.22;1.30;;;;;;;18.96;100.00;99667.25;5234898;28;20025;-73